Eviacement III — 3EWG2 — position and weather

sailwx.info

Track history (hours):
 
Tides and Currents Weather Stations Pressure Air Temp Water Temp Dewpoint Dewpoint Depression Visibility Wind Speed Wind Dir Waves Ship Positions

Eviacement III

Last reported at 2018-Jun-23 12:55 UTC. Time now 2018-Jun-24 15:03 UTC.
Position N 43°40' E 007°20'.

Length 117 m; draft 4.2 m.

Type: Ship. MMSI: 354827000.

Date/timePositionNaut miles runAvg speedWind from/ knotsBaromVisibWave heightAir tempDewpointWater temp
2018-Jun-23 12:55N 43°40' E 007°20'2 5.2
2018-Jun-23 12:30N 43°39' E 007°18'4 7.9
2018-Jun-23 12:00N 43°35' E 007°16'510.5
2018-Jun-23 11:30N 43°30' E 007°14'510.3
2018-Jun-23 11:00N 43°25' E 007°13'510.0
2018-Jun-23 10:30N 43°20' E 007°11'1 2.8
2018-Jun-23 10:00N 43°19' E 007°10'1 1.9
2018-Jun-23 09:30N 43°19' E 007°12'1 2.1
2018-Jun-23 09:00N 43°19' E 007°13'1 2.2
2018-Jun-23 08:30N 43°20' E 007°14'1 2.2
2018-Jun-23 08:00N 43°20' E 007°16'1 2.2
2018-Jun-23 07:30N 43°21' E 007°17'1 2.4
2018-Jun-23 07:00N 43°21' E 007°19'1 2.5
2018-Jun-23 06:30N 43°21' E 007°20'1 2.6
2018-Jun-23 06:00N 43°22' E 007°22'3 5.3
2018-Jun-23 05:30N 43°25' E 007°21'2 3.9
2018-Jun-23 05:00N 43°26' E 007°20'5 9.5
2018-Jun-23 04:29N 43°22' E 007°22'2 5.0
2018-Jun-23 04:00N 43°24' E 007°22'1 2.9
2018-Jun-23 03:30N 43°23' E 007°24'1 2.6
2018-Jun-23 02:59N 43°24' E 007°25'1 1.4
2018-Jun-23 02:30N 43°24' E 007°26'1 1.1
2018-Jun-23 01:59N 43°24' E 007°27'1 0.9
2018-Jun-23 01:18N 43°24' E 007°28'0 0.7
2018-Jun-23 01:00N 43°24' E 007°28'0 0.7
2018-Jun-23 00:23N 43°25' E 007°29'0 0.7
2018-Jun-23 00:00N 43°25' E 007°29'0 0.8
2018-Jun-22 23:30N 43°25' E 007°29'0 0.6
2018-Jun-22 23:00N 43°25' E 007°30'2 4.8
2018-Jun-22 22:30N 43°25' E 007°26'5 9.8
2018-Jun-22 22:00N 43°24' E 007°20'5 9.9
2018-Jun-22 21:30N 43°21' E 007°14'5 9.6
2018-Jun-22 21:01N 43°18' E 007°09'5 9.5
2018-Jun-22 20:30N 43°15' E 007°04'5 9.4
2018-Jun-22 20:01N 43°12' E 006°59'5 9.1
2018-Jun-22 19:30N 43°09' E 006°54'147 7.8
2018-Jun-22 00:35N 41°27' E 004°31'110.7
2018-Jun-22 00:28N 41°26' E 004°30'510.7
2018-Jun-21 23:59N 41°23' E 004°25'510.7
2018-Jun-21 23:31N 41°19' E 004°20'510.6
2018-Jun-21 23:01N 41°16' E 004°15'510.8
2018-Jun-21 22:30N 41°12' E 004°10'510.8
2018-Jun-21 22:01N 41°08' E 004°04'510.8
2018-Jun-21 21:31N 41°05' E 003°59'510.8
2018-Jun-21 21:01N 41°01' E 003°53'510.8
2018-Jun-21 20:31N 40°58' E 003°47'510.7
2018-Jun-21 20:01N 40°55' E 003°42'510.7
2018-Jun-21 19:31N 40°52' E 003°36'510.6
2018-Jun-21 19:01N 40°48' E 003°31'510.8
2018-Jun-21 18:30N 40°44' E 003°26'510.9
2018-Jun-21 18:01N 40°40' E 003°21'2210.5
2018-Jun-21 15:53N 40°24' E 003°01'1510.4
2018-Jun-21 14:24N 40°13' E 002°47'510.3
2018-Jun-21 13:54N 40°09' E 002°43'410.5
2018-Jun-21 13:29N 40°05' E 002°41'510.4
2018-Jun-21 12:59N 40°00' E 002°38'610.0
2018-Jun-21 12:23N 39°56' E 002°32'6 9.9
2018-Jun-21 11:47N 39°53' E 002°26'3 9.8
2018-Jun-21 11:31N 39°51' E 002°23'5710.1
2018-Jun-21 05:50N 39°16' E 001°24'310.5
2018-Jun-21 05:30N 39°13' E 001°21'710.5
2018-Jun-21 04:49N 39°08' E 001°15'310.5
2018-Jun-21 04:30N 39°06' E 001°12'510.5
2018-Jun-21 03:59N 39°02' E 001°06'510.6
2018-Jun-21 03:30N 38°59' E 001°02'510.3
2018-Jun-21 03:00N 38°55' E 000°57'510.2
2018-Jun-21 02:30N 38°51' E 000°53'510.2
2018-Jun-21 02:00N 38°47' E 000°48'510.2
2018-Jun-21 01:28N 38°43' E 000°44'3110.2
2018-Jun-20 22:26N 38°19' E 000°19'810.0
2018-Jun-20 21:35N 38°13' E 000°12'110.1
2018-Jun-20 21:30N 38°12' E 000°11'510.0
2018-Jun-20 21:00N 38°08' E 000°07'510.0
2018-Jun-20 20:28N 38°04' E 000°03'5 9.9
2018-Jun-20 20:00N 38°00' W 000°01'510.0
2018-Jun-20 19:29N 37°56' W 000°05'5 9.9
2018-Jun-20 19:00N 37°53' W 000°09'510.0
2018-Jun-20 18:30N 37°49' W 000°13'5 9.9
2018-Jun-20 17:59N 37°45' W 000°17'5 9.9
2018-Jun-20 17:30N 37°41' W 000°21'510.0
2018-Jun-20 17:00N 37°37' W 000°25'5 9.8
2018-Jun-20 16:30N 37°34' W 000°30'5 9.5
2018-Jun-20 16:00N 37°32' W 000°35'4 8.8
2018-Jun-20 15:30N 37°31' W 000°40'5 9.3
2018-Jun-20 15:00N 37°31' W 000°46'5 9.3
2018-Jun-20 14:28N 37°32' W 000°53'5 9.1
2018-Jun-20 13:56N 37°32' W 000°59'2 0.1
2018-Jun-18 17:12N 37°34' W 000°59'1 4.1
2018-Jun-18 17:00N 37°34' W 000°60'2 4.3
2018-Jun-18 16:28N 37°31' W 000°60'0 0.4
2018-Jun-18 15:55N 37°32' W 000°59'1 2.3
2018-Jun-18 15:19N 37°32' W 000°58'3 8.5
2018-Jun-18 14:59N 37°31' W 000°54'5 9.4
2018-Jun-18 14:29N 37°29' W 000°49'4 9.4
2018-Jun-18 14:00N 37°28' W 000°43'5 9.4
2018-Jun-18 13:28N 37°27' W 000°37'5 9.2
2018-Jun-18 12:56N 37°25' W 000°31'4 8.8
2018-Jun-18 12:29N 37°26' W 000°26'4 8.9
2018-Jun-18 12:00N 37°26' W 000°21'6 9.2
2018-Jun-18 11:24N 37°27' W 000°14'4 9.1
2018-Jun-18 10:59N 37°27' W 000°09'4 9.1
2018-Jun-18 10:30N 37°28' W 000°04'5 9.1
2018-Jun-18 09:55N 37°30' E 000°02'4 9.2
2018-Jun-18 09:26N 37°31' E 000°08'4 9.6
2018-Jun-18 09:00N 37°32' E 000°13'5 9.7
2018-Jun-18 08:29N 37°32' E 000°19'5 9.7
2018-Jun-18 08:00N 37°33' E 000°25'5 9.6
2018-Jun-18 07:30N 37°33' E 000°31'5 9.6
2018-Jun-18 07:00N 37°34' E 000°37'5 9.5
2018-Jun-18 06:30N 37°34' E 000°43'5 9.4
2018-Jun-18 06:00N 37°35' E 000°49'5 9.6
2018-Jun-18 05:30N 37°36' E 000°55'  
Track history (hours):
 
Tides and Currents Weather Stations Pressure Air Temp Water Temp Dewpoint Dewpoint Depression Visibility Wind Speed Wind Dir Waves Ship Positions

Eviacement III

Last reported at 2018-Jun-23 12:55 UTC. Time now 2018-Jun-24 15:03 UTC.
Position N 43°40' E 007°20'.

Length 117 m; draft 4.2 m.

Type: Ship. MMSI: 354827000.

Date/timePositionNaut miles runAvg speedWind from/ knotsBaromVisibWave heightAir tempDewpointWater temp
2018-Jun-23 12:55N 43°40' E 007°20'2 5.2
2018-Jun-23 12:30N 43°39' E 007°18'4 7.9
2018-Jun-23 12:00N 43°35' E 007°16'510.5
2018-Jun-23 11:30N 43°30' E 007°14'510.3
2018-Jun-23 11:00N 43°25' E 007°13'510.0
2018-Jun-23 10:30N 43°20' E 007°11'1 2.8
2018-Jun-23 10:00N 43°19' E 007°10'1 1.9
2018-Jun-23 09:30N 43°19' E 007°12'1 2.1
2018-Jun-23 09:00N 43°19' E 007°13'1 2.2
2018-Jun-23 08:30N 43°20' E 007°14'1 2.2
2018-Jun-23 08:00N 43°20' E 007°16'1 2.2
2018-Jun-23 07:30N 43°21' E 007°17'1 2.4
2018-Jun-23 07:00N 43°21' E 007°19'1 2.5
2018-Jun-23 06:30N 43°21' E 007°20'1 2.6
2018-Jun-23 06:00N 43°22' E 007°22'3 5.3
2018-Jun-23 05:30N 43°25' E 007°21'2 3.9
2018-Jun-23 05:00N 43°26' E 007°20'5 9.5
2018-Jun-23 04:29N 43°22' E 007°22'2 5.0
2018-Jun-23 04:00N 43°24' E 007°22'1 2.9
2018-Jun-23 03:30N 43°23' E 007°24'1 2.6
2018-Jun-23 02:59N 43°24' E 007°25'1 1.4
2018-Jun-23 02:30N 43°24' E 007°26'1 1.1
2018-Jun-23 01:59N 43°24' E 007°27'1 0.9
2018-Jun-23 01:18N 43°24' E 007°28'0 0.7
2018-Jun-23 01:00N 43°24' E 007°28'0 0.7
2018-Jun-23 00:23N 43°25' E 007°29'0 0.7
2018-Jun-23 00:00N 43°25' E 007°29'0 0.8
2018-Jun-22 23:30N 43°25' E 007°29'0 0.6
2018-Jun-22 23:00N 43°25' E 007°30'2 4.8
2018-Jun-22 22:30N 43°25' E 007°26'5 9.8
2018-Jun-22 22:00N 43°24' E 007°20'5 9.9
2018-Jun-22 21:30N 43°21' E 007°14'5 9.6
2018-Jun-22 21:01N 43°18' E 007°09'5 9.5
2018-Jun-22 20:30N 43°15' E 007°04'5 9.4
2018-Jun-22 20:01N 43°12' E 006°59'5 9.1
2018-Jun-22 19:30N 43°09' E 006°54'147 7.8
2018-Jun-22 00:35N 41°27' E 004°31'110.7
2018-Jun-22 00:28N 41°26' E 004°30'510.7
2018-Jun-21 23:59N 41°23' E 004°25'510.7
2018-Jun-21 23:31N 41°19' E 004°20'510.6
2018-Jun-21 23:01N 41°16' E 004°15'510.8
2018-Jun-21 22:30N 41°12' E 004°10'510.8
2018-Jun-21 22:01N 41°08' E 004°04'510.8
2018-Jun-21 21:31N 41°05' E 003°59'510.8
2018-Jun-21 21:01N 41°01' E 003°53'510.8
2018-Jun-21 20:31N 40°58' E 003°47'510.7
2018-Jun-21 20:01N 40°55' E 003°42'510.7
2018-Jun-21 19:31N 40°52' E 003°36'510.6
2018-Jun-21 19:01N 40°48' E 003°31'510.8
2018-Jun-21 18:30N 40°44' E 003°26'510.9
2018-Jun-21 18:01N 40°40' E 003°21'2210.5
2018-Jun-21 15:53N 40°24' E 003°01'1510.4
2018-Jun-21 14:24N 40°13' E 002°47'510.3
2018-Jun-21 13:54N 40°09' E 002°43'410.5
2018-Jun-21 13:29N 40°05' E 002°41'510.4
2018-Jun-21 12:59N 40°00' E 002°38'610.0
2018-Jun-21 12:23N 39°56' E 002°32'6 9.9
2018-Jun-21 11:47N 39°53' E 002°26'3 9.8
2018-Jun-21 11:31N 39°51' E 002°23'5710.1
2018-Jun-21 05:50N 39°16' E 001°24'310.5
2018-Jun-21 05:30N 39°13' E 001°21'710.5
2018-Jun-21 04:49N 39°08' E 001°15'310.5
2018-Jun-21 04:30N 39°06' E 001°12'510.5
2018-Jun-21 03:59N 39°02' E 001°06'510.6
2018-Jun-21 03:30N 38°59' E 001°02'510.3
2018-Jun-21 03:00N 38°55' E 000°57'510.2
2018-Jun-21 02:30N 38°51' E 000°53'510.2
2018-Jun-21 02:00N 38°47' E 000°48'510.2
2018-Jun-21 01:28N 38°43' E 000°44'3110.2
2018-Jun-20 22:26N 38°19' E 000°19'810.0
2018-Jun-20 21:35N 38°13' E 000°12'110.1
2018-Jun-20 21:30N 38°12' E 000°11'510.0
2018-Jun-20 21:00N 38°08' E 000°07'510.0
2018-Jun-20 20:28N 38°04' E 000°03'5 9.9
2018-Jun-20 20:00N 38°00' W 000°01'510.0
2018-Jun-20 19:29N 37°56' W 000°05'5 9.9
2018-Jun-20 19:00N 37°53' W 000°09'510.0
2018-Jun-20 18:30N 37°49' W 000°13'5 9.9
2018-Jun-20 17:59N 37°45' W 000°17'5 9.9
2018-Jun-20 17:30N 37°41' W 000°21'510.0
2018-Jun-20 17:00N 37°37' W 000°25'5 9.8
2018-Jun-20 16:30N 37°34' W 000°30'5 9.5
2018-Jun-20 16:00N 37°32' W 000°35'4 8.8
2018-Jun-20 15:30N 37°31' W 000°40'5 9.3
2018-Jun-20 15:00N 37°31' W 000°46'5 9.3
2018-Jun-20 14:28N 37°32' W 000°53'5 9.1
2018-Jun-20 13:56N 37°32' W 000°59'2 0.1
2018-Jun-18 17:12N 37°34' W 000°59'1 4.1
2018-Jun-18 17:00N 37°34' W 000°60'2 4.3
2018-Jun-18 16:28N 37°31' W 000°60'0 0.4
2018-Jun-18 15:55N 37°32' W 000°59'1 2.3
2018-Jun-18 15:19N 37°32' W 000°58'3 8.5
2018-Jun-18 14:59N 37°31' W 000°54'5 9.4
2018-Jun-18 14:29N 37°29' W 000°49'4 9.4
2018-Jun-18 14:00N 37°28' W 000°43'5 9.4
2018-Jun-18 13:28N 37°27' W 000°37'5 9.2
2018-Jun-18 12:56N 37°25' W 000°31'4 8.8
2018-Jun-18 12:29N 37°26' W 000°26'4 8.9
2018-Jun-18 12:00N 37°26' W 000°21'6 9.2
2018-Jun-18 11:24N 37°27' W 000°14'4 9.1
2018-Jun-18 10:59N 37°27' W 000°09'4 9.1
2018-Jun-18 10:30N 37°28' W 000°04'5 9.1
2018-Jun-18 09:55N 37°30' E 000°02'4 9.2
2018-Jun-18 09:26N 37°31' E 000°08'4 9.6
2018-Jun-18 09:00N 37°32' E 000°13'5 9.7
2018-Jun-18 08:29N 37°32' E 000°19'5 9.7
2018-Jun-18 08:00N 37°33' E 000°25'5 9.6
2018-Jun-18 07:30N 37°33' E 000°31'5 9.6
2018-Jun-18 07:00N 37°34' E 000°37'5 9.5
2018-Jun-18 06:30N 37°34' E 000°43'5 9.4
2018-Jun-18 06:00N 37°35' E 000°49'5 9.6
2018-Jun-18 05:30N 37°36' E 000°55'  

Dump ship's entire track history